< < Back
Terminal Aerodrome Forecast


Current Version              Previous Versions:   1  2  3  4  5  6  7  8  9  

Terminal Aerodrome Forecast

276
FTUS44 KBMX 231500 AAD
TAFBHM
TAF AMD
KBHM 231540Z 2316/2412 12010G18KT 5SM -RA BR OVC008
     FM231800 13012G18KT 5SM -SHRA VCTS OVC010CB
      TEMPO 2319/2322 2SM TSRA OVC010CB
     FM232200 18012G20KT P6SM VCSH BKN015=



Latest METAR

598
SAUS70 KWBC 232300 RRW
MTRBHM
METAR KBHM 232353Z 18016G24KT 10SM SCT036 OVC048 17/14 A2962 RMK AO2
SLP024 60040 T01720144 10183 20156 51022


USA.gov is the U.S. government's official web portal to all federal, state and local government web resources and services.